createdAt,value
2024-02-20T00:01:28.078Z,10.27
2024-02-20T00:03:55.616Z,10.00
2024-02-20T00:06:22.245Z,9.80
2024-02-20T00:08:48.905Z,10.02
2024-02-20T00:11:15.789Z,10.13
2024-02-20T00:13:42.463Z,9.60
2024-02-20T00:16:09.174Z,9.85
2024-02-20T00:18:36.901Z,9.32
2024-02-20T00:21:03.649Z,10.07
2024-02-20T00:23:30.168Z,9.50
2024-02-20T00:25:56.768Z,10.07
2024-02-20T00:28:23.366Z,9.45
2024-02-20T00:30:51.792Z,8.98
2024-02-20T00:33:18.417Z,8.85
2024-02-20T00:35:45.033Z,8.45
2024-02-20T00:38:12.191Z,8.73
2024-02-20T00:40:40.806Z,8.57
2024-02-20T00:43:07.544Z,8.23
2024-02-20T00:45:34.374Z,8.70
2024-02-20T00:48:00.989Z,7.90
2024-02-20T00:50:29.753Z,8.73
2024-02-20T00:52:56.478Z,8.23
2024-02-20T00:55:23.089Z,8.50
2024-02-20T00:57:49.674Z,7.35
2024-02-20T01:00:16.333Z,7.75
2024-02-20T01:02:43.220Z,8.15
2024-02-20T01:05:10.970Z,7.60
2024-02-20T01:07:39.074Z,7.68
2024-02-20T01:10:05.887Z,7.13
2024-02-20T01:12:32.711Z,7.13
2024-02-20T01:14:59.588Z,7.63
2024-02-20T01:17:26.202Z,6.70
2024-02-20T01:19:52.879Z,7.57
2024-02-20T01:22:19.460Z,7.30
2024-02-20T01:24:46.083Z,7.45
2024-02-20T01:27:12.656Z,6.28
2024-02-20T01:29:39.177Z,6.95
2024-02-20T01:32:06.115Z,6.45
2024-02-20T01:34:33.332Z,6.40
2024-02-20T01:37:00.023Z,6.82
2024-02-20T01:39:27.310Z,6.38
2024-02-20T01:41:54.107Z,6.90
2024-02-20T01:44:20.624Z,6.18
2024-02-20T01:46:47.487Z,6.60
2024-02-20T01:49:14.394Z,5.85
2024-02-20T01:51:41.088Z,6.47
2024-02-20T01:54:07.864Z,6.15
2024-02-20T01:56:36.598Z,5.93
2024-02-20T01:59:04.508Z,6.10
2024-02-20T02:01:31.594Z,5.72
2024-02-20T02:03:58.446Z,6.32
2024-02-20T02:06:32.185Z,5.35
2024-02-20T02:11:25.593Z,5.10
2024-02-20T02:13:52.369Z,5.32
2024-02-20T02:16:18.993Z,5.15
2024-02-20T02:18:45.685Z,5.07
2024-02-20T02:21:13.075Z,5.38
2024-02-20T02:23:39.612Z,4.90
2024-02-20T02:26:15.310Z,5.65
2024-02-20T02:28:43.463Z,5.05
2024-02-20T02:31:10.073Z,5.13
2024-02-20T02:33:37.018Z,4.78
2024-02-20T02:36:03.828Z,4.72
2024-02-20T02:38:31.166Z,4.22
2024-02-20T02:40:57.703Z,4.43
2024-02-20T02:43:24.246Z,4.60
2024-02-20T02:45:50.928Z,4.40
2024-02-20T02:48:18.105Z,4.28
2024-02-20T02:50:44.650Z,4.68
2024-02-20T02:53:11.272Z,4.65
2024-02-20T02:55:38.016Z,4.80
2024-02-20T02:58:06.510Z,4.65
2024-02-20T03:00:33.260Z,4.05
2024-02-20T03:02:59.955Z,4.28
2024-02-20T03:05:26.921Z,4.03
2024-02-20T03:07:53.577Z,4.18
2024-02-20T03:10:21.341Z,4.68
2024-02-20T03:12:48.181Z,3.95
2024-02-20T03:15:15.237Z,4.03
2024-02-20T03:17:45.578Z,3.90
2024-02-20T03:20:16.089Z,3.65
2024-02-20T03:22:43.627Z,4.05
2024-02-20T03:25:10.467Z,4.00
2024-02-20T03:27:40.450Z,3.42
2024-02-20T03:30:07.910Z,4.13
2024-02-20T03:32:35.004Z,3.33
2024-02-20T03:35:01.722Z,3.75
2024-02-20T03:37:28.450Z,3.60
2024-02-20T03:39:55.066Z,3.60
2024-02-20T03:42:22.171Z,3.60
2024-02-20T03:44:48.833Z,3.80
2024-02-20T03:47:15.402Z,3.60
2024-02-20T03:49:42.247Z,3.72
2024-02-20T03:52:08.892Z,3.53
2024-02-20T03:54:35.451Z,4.03
2024-02-20T03:57:02.109Z,3.75
2024-02-20T03:59:29.298Z,3.13
2024-02-20T04:01:56.269Z,3.30
2024-02-20T04:04:22.914Z,3.25
2024-02-20T04:06:49.645Z,3.03
2024-02-20T04:09:16.407Z,2.63
2024-02-20T04:11:43.117Z,3.15
2024-02-20T04:14:09.695Z,3.10
2024-02-20T04:16:36.638Z,3.25
2024-02-20T04:19:03.372Z,3.05
2024-02-20T04:21:30.033Z,2.65
2024-02-20T04:23:57.469Z,2.65
2024-02-20T04:26:24.096Z,2.40
2024-02-20T04:28:50.679Z,2.83
2024-02-20T04:31:17.246Z,3.00
2024-02-20T04:33:43.859Z,3.03
2024-02-20T04:36:10.725Z,2.60
2024-02-20T04:38:37.299Z,2.85
2024-02-20T04:41:04.006Z,2.63
2024-02-20T04:43:30.628Z,2.75
2024-02-20T04:45:57.248Z,2.45
2024-02-20T04:48:23.890Z,2.72
2024-02-20T04:50:50.521Z,2.67
2024-02-20T04:53:17.117Z,2.42
2024-02-20T04:55:43.756Z,2.60
2024-02-20T04:58:10.838Z,2.63
2024-02-20T05:00:37.657Z,2.78
2024-02-20T05:03:05.809Z,2.72
2024-02-20T05:05:32.702Z,2.10
2024-02-20T05:07:59.292Z,2.03
2024-02-20T05:10:26.078Z,2.88
2024-02-20T05:12:52.718Z,3.15
2024-02-20T05:15:19.307Z,2.30
2024-02-20T05:17:45.902Z,2.53
2024-02-20T05:20:12.624Z,2.70
2024-02-20T05:22:39.567Z,2.35
2024-02-20T05:25:07.890Z,2.83
2024-02-20T05:27:34.759Z,2.95
2024-02-20T05:30:01.426Z,2.47
2024-02-20T05:32:28.215Z,2.70
2024-02-20T05:34:54.967Z,2.35
2024-02-20T05:37:21.572Z,2.50
2024-02-20T05:39:48.127Z,2.78
2024-02-20T05:42:14.657Z,2.70
2024-02-20T05:44:41.194Z,3.30
2024-02-20T05:47:07.984Z,2.80
2024-02-20T05:49:34.868Z,3.05
2024-02-20T05:52:01.552Z,3.30
2024-02-20T05:54:28.141Z,4.28
2024-02-20T05:56:54.714Z,3.35
2024-02-20T05:59:21.276Z,2.97
2024-02-20T06:01:47.928Z,3.15
2024-02-20T06:04:15.160Z,4.00
2024-02-20T06:06:43.386Z,3.70
2024-02-20T06:09:10.144Z,3.60
2024-02-20T06:11:36.800Z,3.45
2024-02-20T06:14:04.037Z,3.38
2024-02-20T06:16:30.725Z,3.88
2024-02-20T06:18:58.048Z,3.88
2024-02-20T06:21:24.918Z,3.45
2024-02-20T06:23:52.261Z,3.80
2024-02-20T06:26:18.972Z,4.18
2024-02-20T06:28:45.783Z,3.95
2024-02-20T06:31:12.690Z,3.70
2024-02-20T06:33:43.241Z,4.15
2024-02-20T06:36:10.469Z,4.00
2024-02-20T06:38:37.909Z,4.15
2024-02-20T06:41:05.574Z,4.05
2024-02-20T06:43:32.287Z,4.00
2024-02-20T06:45:59.099Z,4.68
2024-02-20T06:48:25.883Z,4.20
2024-02-20T06:50:52.996Z,3.55
2024-02-20T06:53:19.599Z,4.50
2024-02-20T06:55:46.285Z,4.97
2024-02-20T06:58:13.038Z,4.13
2024-02-20T07:00:40.173Z,4.50
2024-02-20T07:03:08.191Z,4.35
2024-02-20T07:05:35.388Z,4.03
2024-02-20T07:08:02.345Z,4.80
2024-02-20T07:10:29.245Z,4.35
2024-02-20T07:12:58.834Z,4.20
2024-02-20T07:15:25.525Z,3.85
2024-02-20T07:17:52.102Z,4.03
2024-02-20T07:20:19.121Z,4.25
2024-02-20T07:22:50.023Z,3.80
2024-02-20T07:25:20.710Z,4.60
2024-02-20T07:27:47.906Z,3.75
2024-02-20T07:30:15.086Z,3.67
2024-02-20T07:32:43.185Z,3.97
2024-02-20T07:35:14.207Z,4.22
2024-02-20T07:37:41.819Z,4.13
2024-02-20T07:40:13.333Z,4.00
2024-02-20T07:42:41.138Z,3.90
2024-02-20T07:45:08.928Z,4.03
2024-02-20T07:47:38.618Z,3.80
2024-02-20T07:50:06.443Z,4.53
2024-02-20T07:52:33.946Z,3.70
2024-02-20T07:55:01.009Z,3.42
2024-02-20T07:57:27.757Z,3.90
2024-02-20T07:59:54.587Z,3.65
2024-02-20T08:02:21.217Z,3.78
2024-02-20T08:04:48.200Z,4.63
2024-02-20T08:07:15.028Z,3.78
2024-02-20T08:09:41.661Z,3.97
2024-02-20T08:12:08.265Z,3.75
2024-02-20T08:14:35.486Z,3.90
2024-02-20T08:17:02.270Z,3.67
2024-02-20T08:19:28.953Z,3.75
2024-02-20T08:21:55.677Z,3.22
2024-02-20T08:24:22.248Z,4.03
2024-02-20T08:26:48.913Z,3.90
2024-02-20T08:29:15.529Z,3.50
2024-02-20T08:31:45.285Z,3.50
2024-02-20T08:34:12.327Z,3.50
2024-02-20T08:36:39.918Z,3.30
2024-02-20T08:39:06.829Z,3.75
2024-02-20T08:41:33.615Z,3.42
2024-02-20T08:44:00.287Z,3.53
2024-02-20T08:46:27.076Z,4.03
2024-02-20T08:48:53.747Z,3.60
2024-02-20T08:51:20.330Z,3.55
2024-02-20T08:53:47.985Z,3.80
2024-02-20T08:56:14.763Z,4.05
2024-02-20T08:58:41.436Z,3.78
2024-02-20T09:01:08.128Z,3.65
2024-02-20T09:03:36.745Z,3.28
2024-02-20T09:06:04.258Z,3.92
2024-02-20T09:08:30.892Z,3.53
2024-02-20T09:10:59.597Z,3.22
2024-02-20T09:13:26.330Z,3.53
2024-02-20T09:15:54.293Z,3.50
2024-02-20T09:18:20.888Z,3.85
2024-02-20T09:20:47.519Z,3.50
2024-02-20T09:23:14.554Z,3.42
2024-02-20T09:25:44.894Z,3.80
2024-02-20T09:28:11.546Z,3.13
2024-02-20T09:30:38.212Z,3.45
2024-02-20T09:33:05.047Z,3.35
2024-02-20T09:35:31.703Z,3.72
2024-02-20T09:37:58.354Z,3.65
2024-02-20T09:40:25.704Z,3.17
2024-02-20T09:42:52.581Z,3.90
2024-02-20T09:45:21.321Z,3.15
2024-02-20T09:47:53.954Z,3.80
2024-02-20T09:50:23.689Z,3.35
2024-02-20T09:52:55.335Z,3.42
2024-02-20T09:55:26.524Z,3.35
2024-02-20T09:57:53.950Z,3.53
2024-02-20T10:00:21.536Z,3.55
2024-02-20T10:02:52.275Z,3.70
2024-02-20T10:05:19.713Z,3.97
2024-02-20T10:07:46.872Z,3.28
2024-02-20T10:10:17.410Z,3.42
2024-02-20T10:12:45.999Z,3.17
2024-02-20T10:15:14.485Z,3.72
2024-02-20T10:17:41.530Z,3.38
2024-02-20T10:20:13.074Z,3.22
2024-02-20T10:22:45.247Z,3.38
2024-02-20T10:25:14.855Z,3.67
2024-02-20T10:27:43.096Z,3.90
2024-02-20T10:30:10.222Z,3.90
2024-02-20T10:32:38.016Z,3.92
2024-02-20T10:35:11.291Z,4.05
2024-02-20T10:37:39.454Z,3.50
2024-02-20T10:40:17.668Z,3.53
2024-02-20T10:42:56.627Z,4.38
2024-02-20T10:45:24.244Z,3.47
2024-02-20T10:47:53.685Z,3.50
2024-02-20T10:50:20.803Z,4.03
2024-02-20T10:52:48.203Z,3.13
2024-02-20T10:55:26.925Z,4.50
2024-02-20T10:58:01.109Z,3.58
2024-02-20T11:00:28.329Z,3.95
2024-02-20T11:02:55.942Z,3.53
2024-02-20T11:05:25.122Z,3.53
2024-02-20T11:07:52.089Z,3.80
2024-02-20T11:10:20.528Z,3.47
2024-02-20T11:12:48.067Z,3.88
2024-02-20T11:15:22.079Z,4.10
2024-02-20T11:17:50.161Z,3.90
2024-02-20T11:20:21.780Z,3.50
2024-02-20T11:22:51.973Z,3.45
2024-02-20T11:25:26.748Z,3.58
2024-02-20T11:27:53.596Z,3.40
2024-02-20T11:30:22.423Z,3.80
2024-02-20T11:32:51.050Z,4.28
2024-02-20T11:35:21.537Z,3.88
2024-02-20T11:37:54.023Z,3.63
2024-02-20T11:40:26.926Z,3.92
2024-02-20T11:42:57.085Z,4.10
2024-02-20T11:45:27.020Z,4.03
2024-02-20T11:48:01.353Z,3.92
2024-02-20T11:50:29.906Z,3.80
2024-02-20T11:53:11.007Z,2.92
2024-02-20T11:55:42.220Z,3.58
2024-02-20T11:58:09.761Z,3.05
2024-02-20T12:00:38.560Z,3.63
2024-02-20T12:03:06.270Z,2.53
2024-02-20T12:05:43.337Z,3.22
2024-02-20T12:08:18.558Z,3.38
2024-02-20T12:10:47.391Z,3.47
2024-02-20T12:13:14.993Z,3.83
2024-02-20T12:15:43.076Z,2.90
2024-02-20T12:18:12.776Z,3.00
2024-02-20T12:20:39.515Z,3.40
2024-02-20T12:23:06.143Z,3.85
2024-02-20T12:25:32.755Z,3.13
2024-02-20T12:27:59.355Z,3.42
2024-02-20T12:30:25.940Z,3.80
2024-02-20T12:32:52.781Z,3.17
2024-02-20T12:35:19.458Z,3.70
2024-02-20T12:37:46.400Z,3.30
2024-02-20T12:40:16.514Z,3.50
2024-02-20T12:42:43.211Z,4.13
2024-02-20T12:45:10.813Z,3.03
2024-02-20T12:47:39.275Z,3.60
2024-02-20T12:50:07.875Z,3.78
2024-02-20T12:52:34.765Z,3.30
2024-02-20T12:55:03.607Z,3.25
2024-02-20T12:57:30.176Z,3.13
2024-02-20T12:59:56.764Z,3.58
2024-02-20T13:02:23.472Z,3.47
2024-02-20T13:04:50.264Z,3.40
2024-02-20T13:07:17.027Z,2.67
2024-02-20T13:09:43.615Z,3.40
2024-02-20T13:12:11.217Z,3.33
2024-02-20T13:14:37.896Z,3.22
2024-02-20T13:17:04.570Z,3.20
2024-02-20T13:19:31.415Z,3.38
2024-02-20T13:21:58.125Z,2.75
2024-02-20T13:24:24.717Z,3.08
2024-02-20T13:26:54.407Z,2.80
2024-02-20T13:29:21.115Z,3.10
2024-02-20T13:31:47.819Z,3.20
2024-02-20T13:34:14.508Z,3.20
2024-02-20T13:36:41.188Z,3.20
2024-02-20T13:39:08.234Z,3.25
2024-02-20T13:41:35.642Z,2.97
2024-02-20T13:44:06.722Z,3.10
2024-02-20T13:46:33.403Z,2.78
2024-02-20T13:49:02.008Z,2.83
2024-02-20T13:51:30.044Z,2.95
2024-02-20T13:53:56.667Z,2.80
2024-02-20T13:56:24.730Z,2.70
2024-02-20T13:58:51.461Z,2.88
2024-02-20T14:01:18.262Z,3.53
2024-02-20T14:03:45.300Z,2.63
2024-02-20T14:06:11.957Z,2.67
2024-02-20T14:08:42.733Z,2.58
2024-02-20T14:11:12.363Z,3.00
2024-02-20T14:13:38.983Z,2.85
2024-02-20T14:16:05.809Z,2.97
2024-02-20T14:18:32.402Z,2.72
2024-02-20T14:21:00.564Z,2.90
2024-02-20T14:23:27.156Z,2.63
2024-02-20T14:25:53.916Z,2.90
2024-02-20T14:28:21.754Z,3.05
2024-02-20T14:30:54.129Z,3.47
2024-02-20T14:33:28.549Z,3.05
2024-02-20T14:35:55.156Z,2.97
2024-02-20T14:38:22.245Z,3.03
2024-02-20T14:40:50.854Z,3.58
2024-02-20T14:43:19.016Z,3.60
2024-02-20T14:45:46.716Z,3.63
2024-02-20T14:48:13.320Z,2.97
2024-02-20T14:50:40.092Z,2.90
2024-02-20T14:53:08.155Z,3.13
2024-02-20T14:55:35.468Z,3.22
2024-02-20T14:58:05.902Z,3.38
2024-02-20T15:00:32.907Z,2.97
2024-02-20T15:02:59.619Z,3.15
2024-02-20T15:05:26.349Z,2.97
2024-02-20T15:07:53.147Z,3.20
2024-02-20T15:10:19.887Z,3.33
2024-02-20T15:12:46.549Z,3.35
2024-02-20T15:15:15.340Z,2.92
2024-02-20T15:17:43.705Z,3.35
2024-02-20T15:20:11.783Z,3.05
2024-02-20T15:22:38.815Z,3.40
2024-02-20T15:25:10.724Z,3.00
2024-02-20T15:27:38.714Z,3.65
2024-02-20T15:30:05.866Z,3.15
2024-02-20T15:32:32.568Z,3.80
2024-02-20T15:34:59.994Z,3.90
2024-02-20T15:37:28.183Z,2.83
2024-02-20T15:39:54.847Z,3.47
2024-02-20T15:42:21.901Z,3.40
2024-02-20T15:44:48.577Z,3.63
2024-02-20T15:47:15.125Z,3.83
2024-02-20T15:49:44.101Z,3.35
2024-02-20T15:52:11.556Z,3.70
2024-02-20T15:54:38.155Z,3.67
2024-02-20T15:57:05.130Z,4.28
2024-02-20T15:59:31.696Z,4.07
2024-02-20T16:01:59.903Z,3.55
2024-02-20T16:04:26.631Z,3.83
2024-02-20T16:06:53.368Z,4.32
2024-02-20T16:09:20.794Z,4.00
2024-02-20T16:11:47.661Z,3.63
2024-02-20T16:14:14.323Z,3.50
2024-02-20T16:16:40.978Z,3.75
2024-02-20T16:19:07.731Z,4.05
2024-02-20T16:21:34.515Z,3.80
2024-02-20T16:24:01.155Z,5.03
2024-02-20T16:26:29.215Z,3.80
2024-02-20T16:28:56.234Z,4.53
2024-02-20T16:31:23.601Z,3.63
2024-02-20T16:33:51.901Z,4.78
2024-02-20T16:36:18.771Z,4.55
2024-02-20T16:38:45.975Z,4.43
2024-02-20T16:41:12.567Z,5.25
2024-02-20T16:43:39.185Z,4.10
2024-02-20T16:46:07.208Z,4.28
2024-02-20T16:48:35.278Z,4.05
2024-02-20T16:51:02.008Z,4.72
2024-02-20T16:53:31.771Z,4.40
2024-02-20T16:55:58.422Z,4.43
2024-02-20T16:58:25.067Z,4.97
2024-02-20T17:00:51.778Z,5.03
2024-02-20T17:03:18.338Z,4.95
2024-02-20T17:05:45.408Z,4.65
2024-02-20T17:08:12.272Z,4.43
2024-02-20T17:10:39.104Z,5.57
2024-02-20T17:13:05.691Z,5.13
2024-02-20T17:15:32.304Z,5.03
2024-02-20T17:17:58.995Z,5.10
2024-02-20T17:20:26.349Z,4.03
2024-02-20T17:22:54.690Z,5.47
2024-02-20T17:25:22.193Z,3.97
2024-02-20T17:27:48.878Z,4.80
2024-02-20T17:30:15.745Z,5.10
2024-02-20T17:32:42.374Z,4.35
2024-02-20T17:35:09.331Z,4.70
2024-02-20T17:37:35.955Z,5.35
2024-02-20T17:40:02.544Z,5.15
2024-02-20T17:42:29.114Z,5.32
2024-02-20T17:44:55.730Z,5.68
2024-02-20T17:47:22.470Z,5.65
2024-02-20T17:49:52.985Z,5.57
2024-02-20T17:52:19.770Z,6.10
2024-02-20T17:54:46.408Z,5.85
2024-02-20T17:57:17.617Z,5.60
2024-02-20T17:59:45.073Z,6.28
2024-02-20T18:02:11.755Z,6.30
2024-02-20T18:04:38.606Z,6.40
2024-02-20T18:07:05.419Z,6.88
2024-02-20T18:09:32.486Z,6.78
2024-02-20T18:11:59.169Z,6.60
2024-02-20T18:14:26.532Z,7.00
2024-02-20T18:16:53.237Z,7.10
2024-02-20T18:21:47.572Z,7.10
2024-02-20T18:24:14.133Z,7.18
2024-02-20T18:26:40.756Z,7.18
2024-02-20T18:29:07.372Z,7.07
2024-02-20T18:31:34.098Z,6.80
2024-02-20T18:34:00.814Z,7.30
2024-02-20T18:36:27.514Z,6.80
2024-02-20T18:38:54.133Z,6.82
2024-02-20T18:41:21.958Z,7.47
2024-02-20T18:43:48.728Z,7.93
2024-02-20T18:46:15.881Z,7.43
2024-02-20T18:48:42.629Z,7.50
2024-02-20T18:51:09.266Z,7.63
2024-02-20T18:53:35.848Z,7.40
2024-02-20T18:56:02.530Z,7.35
2024-02-20T18:58:32.090Z,7.57
2024-02-20T19:01:00.010Z,7.60
2024-02-20T19:03:26.692Z,8.00
2024-02-20T19:05:53.337Z,7.32
2024-02-20T19:08:19.967Z,7.28
2024-02-20T19:10:46.527Z,8.30
2024-02-20T19:13:13.134Z,7.57
2024-02-20T19:15:39.753Z,7.43
2024-02-20T19:18:06.444Z,7.82
2024-02-20T19:20:33.209Z,6.85
2024-02-20T19:22:59.948Z,7.85
2024-02-20T19:25:26.744Z,7.50
2024-02-20T19:27:53.322Z,6.75
2024-02-20T19:30:20.502Z,6.60
2024-02-20T19:32:48.272Z,6.65
2024-02-20T19:35:14.914Z,8.07
2024-02-20T19:37:41.586Z,8.30
2024-02-20T19:40:09.188Z,6.63
2024-02-20T19:42:35.755Z,6.55
2024-02-20T19:45:03.882Z,7.57
2024-02-20T19:47:30.551Z,6.95
2024-02-20T19:49:57.222Z,6.90
2024-02-20T19:52:23.872Z,6.85
2024-02-20T19:54:50.537Z,6.72
2024-02-20T19:57:17.158Z,6.45
2024-02-20T19:59:47.383Z,7.30
2024-02-20T20:02:13.990Z,6.15
2024-02-20T20:04:40.701Z,7.28
2024-02-20T20:07:07.513Z,6.93
2024-02-20T20:09:34.194Z,7.57
2024-02-20T20:12:00.857Z,6.78
2024-02-20T20:14:27.487Z,6.47
2024-02-20T20:16:54.273Z,6.20
2024-02-20T20:19:21.051Z,6.40
2024-02-20T20:21:49.199Z,6.63
2024-02-20T20:24:18.306Z,5.70
2024-02-20T20:26:50.523Z,6.03
2024-02-20T20:29:17.155Z,6.97
2024-02-20T20:31:43.903Z,6.22
2024-02-20T20:34:11.182Z,6.25
2024-02-20T20:36:38.640Z,6.28
2024-02-20T20:39:06.590Z,6.00
2024-02-20T20:41:35.569Z,6.97
2024-02-20T20:44:02.340Z,6.68
2024-02-20T20:46:29.520Z,6.65
2024-02-20T20:48:56.276Z,7.07
2024-02-20T20:51:22.927Z,7.90
2024-02-20T20:53:49.476Z,7.68
2024-02-20T20:56:16.021Z,7.32
2024-02-20T20:58:42.665Z,8.07
2024-02-20T21:01:09.370Z,6.97
2024-02-20T21:03:36.392Z,7.00
2024-02-20T21:06:03.447Z,7.95
2024-02-20T21:08:30.350Z,7.63
2024-02-20T21:10:57.107Z,7.85
2024-02-20T21:13:23.846Z,7.68
2024-02-20T21:15:50.685Z,7.60
2024-02-20T21:18:17.432Z,7.95
2024-02-20T21:20:44.943Z,8.45
2024-02-20T21:23:16.589Z,7.97
2024-02-20T21:25:43.933Z,8.77
2024-02-20T21:28:10.617Z,7.95
2024-02-20T21:30:42.671Z,8.45
2024-02-20T21:33:09.955Z,8.77
2024-02-20T21:35:37.040Z,8.60
2024-02-20T21:38:03.764Z,9.57
2024-02-20T21:40:30.430Z,9.43
2024-02-20T21:42:57.155Z,10.20
2024-02-20T21:45:23.724Z,10.23
2024-02-20T21:47:51.556Z,12.10
2024-02-20T21:50:19.759Z,11.25
2024-02-20T21:52:46.382Z,13.60
2024-02-20T21:55:14.804Z,12.73
2024-02-20T21:57:42.636Z,12.60
2024-02-20T22:00:10.820Z,13.85
2024-02-20T22:02:37.398Z,13.98
2024-02-20T22:05:04.719Z,14.63
2024-02-20T22:07:31.503Z,14.10
2024-02-20T22:09:59.837Z,15.93
2024-02-20T22:12:26.397Z,15.02
2024-02-20T22:14:52.910Z,15.02
2024-02-20T22:17:19.514Z,15.90
2024-02-20T22:19:46.118Z,14.45
2024-02-20T22:22:12.767Z,15.02
2024-02-20T22:24:39.425Z,14.57
2024-02-20T22:27:06.044Z,14.90
2024-02-20T22:29:32.607Z,14.50
2024-02-20T22:31:59.396Z,14.00
2024-02-20T22:34:26.668Z,14.65
2024-02-20T22:36:53.399Z,13.40
2024-02-20T22:39:20.072Z,14.45
2024-02-20T22:41:50.049Z,14.30
2024-02-20T22:44:16.677Z,13.88
2024-02-20T22:46:44.460Z,14.00
2024-02-20T22:49:11.410Z,14.00
2024-02-20T22:51:38.136Z,13.02
2024-02-20T22:54:05.315Z,12.63
2024-02-20T22:56:32.196Z,12.90
2024-02-20T22:58:58.953Z,14.07
2024-02-20T23:01:25.729Z,13.35
2024-02-20T23:03:52.552Z,12.88
2024-02-20T23:06:19.285Z,12.20
2024-02-20T23:08:46.071Z,13.90
2024-02-20T23:11:13.610Z,13.02
2024-02-20T23:13:40.507Z,13.02
2024-02-20T23:16:07.234Z,11.73
2024-02-20T23:18:33.937Z,12.55
2024-02-20T23:21:00.483Z,11.40
2024-02-20T23:23:27.029Z,11.70
2024-02-20T23:25:53.689Z,11.95
2024-02-20T23:28:20.445Z,11.82
2024-02-20T23:30:47.021Z,10.95
2024-02-20T23:33:13.792Z,12.68
2024-02-20T23:35:40.925Z,11.30
2024-02-20T23:38:07.550Z,11.48
2024-02-20T23:40:34.162Z,11.27
2024-02-20T23:43:00.782Z,10.38
2024-02-20T23:45:27.806Z,10.98
2024-02-20T23:47:54.512Z,10.63
2024-02-20T23:50:21.120Z,11.00
2024-02-20T23:52:47.845Z,10.05
2024-02-20T23:55:14.626Z,9.52
2024-02-20T23:57:41.245Z,9.48
